WetterOnline ( http://www.wetteronline.de )

Wetter aktuell Erfurt

Aktuelles Wetter: Eisenach (312m)

6-stündlich | Neueste Meldungen
Ortszeit Temperatur Wetter
Fr, 24.03. 1:00 5.3° C bewölkt
Do, 23.03. 19:00 7.3° C bedeckt
Do, 23.03. 13:00 7.7° C bedeckt
Do, 23.03. 7:00 4.8° C bedeckt
Ortszeit Temperatur Wetter
Fr, 24.03. 3:00 5.2° C bewölkt
Fr, 24.03. 2:30 5.2° C bedeckt
Fr, 24.03. 2:00 5.3° C bedeckt
Fr, 24.03. 1:30 5.3° C bedeckt
Fr, 24.03. 1:00 5.3° C bewölkt
Fr, 24.03. 0:30 5.5° C bedeckt
Ortszeit Relative Feuchte Sichtweite
Fr, 24.03. 1:00 93% 3.1 km
Do, 23.03. 19:00 83% 5.0 km
Do, 23.03. 13:00 87% 6 km
Do, 23.03. 7:00 93% 4.1 km
Ortszeit Relative Feuchte Sichtweite
Fr, 24.03. 3:00 91% 4.1 km
Fr, 24.03. 2:30 92% 3.7 km
Fr, 24.03. 2:00 91% 4.1 km
Fr, 24.03. 1:30 91% 4.3 km
Fr, 24.03. 1:00 93% 3.1 km
Fr, 24.03. 0:30 91% 5.0 km
Ortszeit Niederschlagsmenge Niederschlagsart
Fr, 24.03. 1:00 0,0 l/m2 in 6 Std. -
Do, 23.03. 19:00 0,0 l/m2 in 12 Std. -
Do, 23.03. 13:00 0,0 l/m2 in 6 Std. -
Do, 23.03. 7:00 0.2 l/m2 in 12 Std. -
Ortszeit Niederschlagsmenge Niederschlagsart
Fr, 24.03. 3:00 0,0 l/m2 in 1 Std. -
Fr, 24.03. 2:30 keine Meldung -
Fr, 24.03. 2:00 0,0 l/m2 in 1 Std. -
Fr, 24.03. 1:30 keine Meldung -
Fr, 24.03. 1:00 0,0 l/m2 in 1 Std. -
Fr, 24.03. 0:30 keine Meldung -
Ortszeit Stärke Spitze Richtung
km/h Bft. km/h Grad Sektor
Fr, 24.03. 1:00 22 4 32 70° O
Do, 23.03. 19:00 15 3 24 70° O
Do, 23.03. 13:00 11 2 18 80° O
Do, 23.03. 7:00 9 2 20 130° SO
Ortszeit Stärke Spitze Richtung
km/h Bft. km/h Grad Sektor
Fr, 24.03. 3:00 18 3 25 70° O
Fr, 24.03. 2:30 17 3 24 80° O
Fr, 24.03. 2:00 20 4 30 70° O
Fr, 24.03. 1:30 18 3 29 70° O
Fr, 24.03. 1:00 22 4 29 70° O
Fr, 24.03. 0:30 19 3 26 80° O
Ortszeit Untergrenze Bedeckung Gattung
total tief tief mittel hoch
Fr, 24.03. 1:00 120 m 7/8 7/8 - - -
Do, 23.03. 19:00 420 m 8/8 8/8 - - -
Do, 23.03. 13:00 330 m 8/8 8/8 - - -
Do, 23.03. 7:00 120 m 8/8 8/8 - - -
Ortszeit Bedeckungsgrad in Achtel und Wolkenuntergrenze
Fr, 24.03. 3:00 2(150m) 7(360m) 7(480m)
Fr, 24.03. 2:30 5(240m) 7(390m) 8(690m)
Fr, 24.03. 2:00 6(210m) 8(300m)
Fr, 24.03. 1:30 6(150m) 8(300m)
Fr, 24.03. 1:00 5(120m) 6(330m) 7(480m)
Fr, 24.03. 0:30 1(270m) 8(420m)
Ortszeit Luftdruck NN (hPa) Tendenz (hPa in 3 Std.)
Fr, 24.03. 1:00 1024 + 1,9
Do, 23.03. 19:00 1020 + 1,5
Do, 23.03. 13:00 1018 + 0,9
Do, 23.03. 7:00 1017 + 0,8
Ortszeit Luftdruck NN (hPa) Tendenz (hPa in 3 Std.)
Fr, 24.03. 3:00 1025 + 1,1
Fr, 24.03. 2:30 1025 + 1,2
Fr, 24.03. 2:00 1025 + 1,4
Fr, 24.03. 1:30 1025 + 1,7
Fr, 24.03. 1:00 1024 + 1,9
Fr, 24.03. 0:30 1024 + 1,6
Ortszeit Schneehöhe (cm)
Fr, 24.03. 1:00 -
Do, 23.03. 19:00 -
Do, 23.03. 13:00 -
Do, 23.03. 7:00 -
Ortszeit Schneehöhe (cm)
Fr, 24.03. 3:00 -
Fr, 24.03. 2:30 -
Fr, 24.03. 2:00 -
Fr, 24.03. 1:30 -
Fr, 24.03. 1:00 -
Fr, 24.03. 0:30 -
Link zu dieser Seite / Seite empfehlen

Das Wetter in ...